createdAt,value
2018-08-03T00:00:56.010Z,1.70
2018-08-03T00:04:05.710Z,1.57
2018-08-03T00:07:16.522Z,1.57
2018-08-03T00:10:26.926Z,1.60
2018-08-03T00:13:34.966Z,1.60
2018-08-03T00:16:43.570Z,1.40
2018-08-03T00:19:43.029Z,1.43
2018-08-03T00:22:51.233Z,1.40
2018-08-03T00:25:59.235Z,1.67
2018-08-03T00:28:58.754Z,1.60
2018-08-03T00:32:06.918Z,1.40
2018-08-03T00:35:17.104Z,1.47
2018-08-03T00:38:26.420Z,1.63
2018-08-03T00:41:35.096Z,1.50
2018-08-03T00:44:43.354Z,1.50
2018-08-03T00:47:51.948Z,1.40
2018-08-03T00:51:02.980Z,1.60
2018-08-03T00:54:12.454Z,1.30
2018-08-03T00:57:21.830Z,1.60
2018-08-03T01:00:32.418Z,1.40
2018-08-03T01:03:40.652Z,1.53
2018-08-03T01:06:50.024Z,1.30
2018-08-03T01:09:59.742Z,1.60
2018-08-03T01:13:08.862Z,1.67
2018-08-03T01:16:16.671Z,1.23
2018-08-03T01:19:25.482Z,1.43
2018-08-03T01:22:33.812Z,1.60
2018-08-03T01:25:43.920Z,1.57
2018-08-03T01:28:53.698Z,1.30
2018-08-03T01:32:02.636Z,1.40
2018-08-03T01:35:09.608Z,1.73
2018-08-03T01:38:18.076Z,1.50
2018-08-03T01:41:27.964Z,1.30
2018-08-03T01:44:37.760Z,1.50
2018-08-03T01:47:46.031Z,1.37
2018-08-03T01:50:54.249Z,1.30
2018-08-03T01:54:02.672Z,1.40
2018-08-03T01:57:10.884Z,1.73
2018-08-03T02:00:20.571Z,1.57
2018-08-03T02:03:29.488Z,1.30
2018-08-03T02:06:38.460Z,1.40
2018-08-03T02:09:47.099Z,1.40
2018-08-03T02:12:56.566Z,1.20
2018-08-03T02:16:05.836Z,1.20
2018-08-03T02:19:15.716Z,1.10
2018-08-03T02:22:24.142Z,1.53
2018-08-03T02:25:33.082Z,1.30
2018-08-03T02:28:43.074Z,1.50
2018-08-03T02:31:52.344Z,1.20
2018-08-03T02:35:01.335Z,1.40
2018-08-03T02:38:09.663Z,1.50
2018-08-03T02:41:17.408Z,1.30
2018-08-03T02:44:25.163Z,1.37
2018-08-03T02:47:25.706Z,1.50
2018-08-03T02:50:34.960Z,1.40
2018-08-03T02:53:44.427Z,1.47
2018-08-03T02:56:54.104Z,1.13
2018-08-03T02:59:53.761Z,1.40
2018-08-03T03:03:02.183Z,1.13
2018-08-03T03:06:09.566Z,1.40
2018-08-03T03:09:19.663Z,1.40
2018-08-03T03:12:28.111Z,1.30
2018-08-03T03:15:36.594Z,1.37
2018-08-03T03:18:47.015Z,1.40
2018-08-03T03:21:47.513Z,1.20
2018-08-03T03:24:58.863Z,1.50
2018-08-03T03:28:07.558Z,1.10
2018-08-03T03:31:16.929Z,1.47
2018-08-03T03:34:27.552Z,1.30
2018-08-03T03:37:36.327Z,1.50
2018-08-03T03:40:46.422Z,1.37
2018-08-03T03:43:57.144Z,1.20
2018-08-03T03:47:05.365Z,1.20
2018-08-03T03:50:14.760Z,1.30
2018-08-03T03:53:22.377Z,0.90
2018-08-03T03:56:31.785Z,1.47
2018-08-03T03:59:39.796Z,1.67
2018-08-03T04:02:48.332Z,1.40
2018-08-03T04:05:58.238Z,1.43
2018-08-03T04:09:07.056Z,1.40
2018-08-03T04:12:14.909Z,1.27
2018-08-03T04:15:22.567Z,1.90
2018-08-03T04:18:31.692Z,1.43
2018-08-03T04:21:39.280Z,1.77
2018-08-03T04:24:48.766Z,1.50
2018-08-03T04:27:58.187Z,1.40
2018-08-03T04:31:07.730Z,1.37
2018-08-03T04:34:15.912Z,1.20
2018-08-03T04:37:24.765Z,1.13
2018-08-03T04:40:33.610Z,1.20
2018-08-03T04:43:44.170Z,1.30
2018-08-03T04:46:52.969Z,1.10
2018-08-03T04:50:02.021Z,1.43
2018-08-03T04:53:11.701Z,1.27
2018-08-03T04:56:20.992Z,1.40
2018-08-03T04:59:29.802Z,1.40
2018-08-03T05:02:40.809Z,1.20
2018-08-03T05:05:49.607Z,1.37
2018-08-03T05:08:58.631Z,1.20
2018-08-03T05:12:07.008Z,1.20
2018-08-03T05:15:16.107Z,1.30
2018-08-03T05:18:25.567Z,1.33
2018-08-03T05:21:33.553Z,1.27
2018-08-03T05:24:41.350Z,1.20
2018-08-03T05:27:51.013Z,1.13
2018-08-03T05:31:01.786Z,1.30
2018-08-03T05:34:10.566Z,1.37
2018-08-03T05:37:21.252Z,1.33
2018-08-03T05:40:31.234Z,1.30
2018-08-03T05:43:40.809Z,1.07
2018-08-03T05:46:49.522Z,1.20
2018-08-03T05:49:56.121Z,1.40
2018-08-03T06:44:47.060Z,0.90
2018-08-03T06:47:57.035Z,1.20
2018-08-03T06:51:06.733Z,1.03
2018-08-03T06:54:16.630Z,1.00
2018-08-03T06:57:26.632Z,0.97
2018-08-03T07:00:35.054Z,1.10
2018-08-03T07:03:44.203Z,1.40
2018-08-03T07:06:52.967Z,1.20
2018-08-03T07:10:03.267Z,0.97
2018-08-03T07:13:11.891Z,1.13
2018-08-03T07:16:20.092Z,1.30
2018-08-03T07:19:30.080Z,1.10
2018-08-03T07:22:40.285Z,1.03
2018-08-03T07:25:49.683Z,1.00
2018-08-03T07:28:59.215Z,1.00
2018-08-03T07:32:08.075Z,1.03
2018-08-03T07:35:17.748Z,1.27
2018-08-03T07:38:26.836Z,1.03
2018-08-03T07:41:36.488Z,1.20
2018-08-03T07:44:45.150Z,0.90
2018-08-03T07:47:52.966Z,1.17
2018-08-03T07:51:00.934Z,1.00
2018-08-03T07:54:09.876Z,1.00
2018-08-03T07:57:18.786Z,1.37
2018-08-03T08:00:29.718Z,0.97
2018-08-03T08:03:37.859Z,0.90
2018-08-03T08:06:47.959Z,1.00
2018-08-03T08:09:58.657Z,1.00
2018-08-03T08:13:08.246Z,0.90
2018-08-03T08:16:16.474Z,1.10
2018-08-03T08:19:24.275Z,0.90
2018-08-03T08:22:33.947Z,0.70
2018-08-03T08:25:42.441Z,0.83
2018-08-03T08:28:51.571Z,0.83
2018-08-03T08:32:00.168Z,1.10
2018-08-03T08:35:08.870Z,0.90
2018-08-03T08:38:18.791Z,0.90
2018-08-03T08:41:26.700Z,0.80
2018-08-03T08:44:37.209Z,0.80
2018-08-03T08:47:49.393Z,0.60
2018-08-03T08:50:58.341Z,0.80
2018-08-03T08:54:07.576Z,1.00
2018-08-03T08:57:18.012Z,1.07
2018-08-03T09:00:27.792Z,0.83
2018-08-03T09:03:36.289Z,0.77
2018-08-03T09:06:46.014Z,0.87
2018-08-03T09:09:54.390Z,0.87
2018-08-03T09:13:02.820Z,0.80
2018-08-03T09:16:12.321Z,0.60
2018-08-03T09:19:21.897Z,0.60
2018-08-03T09:22:30.952Z,0.90
2018-08-03T09:25:42.766Z,0.77
2018-08-03T09:28:51.331Z,0.70
2018-08-03T09:31:59.466Z,0.90
2018-08-03T09:35:08.835Z,0.83
2018-08-03T09:38:18.299Z,0.80
2018-08-03T09:41:27.311Z,0.90
2018-08-03T09:44:36.039Z,0.80
2018-08-03T09:47:44.410Z,0.60
2018-08-03T09:50:52.727Z,0.90
2018-08-03T09:54:02.512Z,0.90
2018-08-03T09:57:10.942Z,0.70
2018-08-03T10:00:18.748Z,0.60
2018-08-03T10:03:27.127Z,0.80
2018-08-03T10:06:36.742Z,0.70
2018-08-03T10:09:46.629Z,0.70
2018-08-03T10:12:54.293Z,0.70
2018-08-03T10:16:02.954Z,0.70
2018-08-03T10:19:11.692Z,0.73
2018-08-03T10:22:19.317Z,0.90
2018-08-03T10:25:28.441Z,0.90
2018-08-03T10:28:38.139Z,0.87
2018-08-03T10:31:47.777Z,0.90
2018-08-03T10:34:58.242Z,0.70
2018-08-03T10:38:07.256Z,0.83
2018-08-03T10:41:15.998Z,0.90
2018-08-03T10:44:25.235Z,0.93
2018-08-03T10:47:33.891Z,0.80
2018-08-03T10:50:42.738Z,1.10
2018-08-03T10:53:51.481Z,1.17
2018-08-03T10:57:00.424Z,0.90
2018-08-03T11:00:09.018Z,1.00
2018-08-03T11:03:17.895Z,0.90
2018-08-03T11:06:27.386Z,1.00
2018-08-03T11:09:35.650Z,1.20
2018-08-03T11:12:45.688Z,1.17
2018-08-03T11:15:54.972Z,1.10
2018-08-03T11:19:02.989Z,1.30
2018-08-03T11:22:11.784Z,1.17
2018-08-03T11:25:22.028Z,1.13
2018-08-03T11:28:22.517Z,1.10
2018-08-03T11:31:30.385Z,1.10
2018-08-03T11:34:40.063Z,1.10
2018-08-03T11:37:48.078Z,0.80
2018-08-03T11:40:57.754Z,1.00
2018-08-03T11:44:06.490Z,1.00
2018-08-03T11:47:15.282Z,0.90
2018-08-03T11:50:24.334Z,1.33
2018-08-03T11:53:32.918Z,1.00
2018-08-03T11:56:43.041Z,1.10
2018-08-03T11:59:51.499Z,0.87
2018-08-03T12:03:00.705Z,1.10
2018-08-03T12:06:11.433Z,0.80
2018-08-03T12:09:19.219Z,1.20
2018-08-03T12:12:37.962Z,1.20
2018-08-03T12:15:47.590Z,0.90
2018-08-03T12:18:58.388Z,1.00
2018-08-03T12:22:09.316Z,1.00
2018-08-03T12:25:17.018Z,0.80
2018-08-03T12:28:25.330Z,1.20
2018-08-03T12:31:33.448Z,1.10
2018-08-03T12:34:41.977Z,1.07
2018-08-03T12:37:50.301Z,1.00
2018-08-03T12:41:01.447Z,0.90
2018-08-03T12:44:11.117Z,1.13
2018-08-03T12:47:20.743Z,1.03
2018-08-03T12:50:20.454Z,1.03
2018-08-03T12:53:29.501Z,0.90
2018-08-03T12:56:36.228Z,1.10
2018-08-03T12:59:47.037Z,0.93
2018-08-03T13:02:57.284Z,0.90
2018-08-03T13:06:06.861Z,0.73
2018-08-03T13:09:16.432Z,1.10
2018-08-03T13:12:26.168Z,0.83
2018-08-03T13:15:35.166Z,0.83
2018-08-03T13:18:45.927Z,0.80
2018-08-03T13:21:59.115Z,0.90
2018-08-03T13:25:08.064Z,0.90
2018-08-03T13:28:17.877Z,0.77
2018-08-03T13:31:26.062Z,0.90
2018-08-03T13:34:40.341Z,0.90
2018-08-03T13:37:49.856Z,0.80
2018-08-03T13:40:58.652Z,1.00
2018-08-03T13:44:06.223Z,0.93
2018-08-03T13:47:15.303Z,0.70
2018-08-03T13:50:23.900Z,0.80
2018-08-03T13:53:32.058Z,0.90
2018-08-03T13:56:41.766Z,1.00
2018-08-03T13:59:50.692Z,0.90
2018-08-03T14:02:59.288Z,1.10
2018-08-03T14:06:07.264Z,0.80
2018-08-03T14:09:15.942Z,1.20
2018-08-03T14:12:25.207Z,1.07
2018-08-03T14:15:34.689Z,1.00
2018-08-03T14:18:43.623Z,1.00
2018-08-03T14:21:52.476Z,1.10
2018-08-03T14:25:00.853Z,1.10
2018-08-03T14:28:11.028Z,0.87
2018-08-03T14:31:21.631Z,0.90
2018-08-03T14:34:30.776Z,1.00
2018-08-03T14:37:40.756Z,0.60
2018-08-03T14:40:50.326Z,0.93
2018-08-03T14:43:59.551Z,0.80
2018-08-03T14:47:07.291Z,0.90
2018-08-03T14:50:15.204Z,1.00
2018-08-03T14:53:24.149Z,0.90
2018-08-03T14:56:32.798Z,0.80
2018-08-03T14:59:40.323Z,0.70
2018-08-03T15:02:48.370Z,0.80
2018-08-03T15:05:57.204Z,1.00
2018-08-03T15:09:06.368Z,0.53
2018-08-03T15:12:15.604Z,0.77
2018-08-03T15:15:23.011Z,0.77
2018-08-03T15:18:31.133Z,0.80
2018-08-03T15:21:39.834Z,0.80
2018-08-03T15:24:49.853Z,0.90
2018-08-03T15:27:59.218Z,0.70
2018-08-03T15:31:07.994Z,0.63
2018-08-03T15:34:17.641Z,0.60
2018-08-03T15:37:26.476Z,1.07
2018-08-03T15:40:34.684Z,0.70
2018-08-03T15:43:44.408Z,0.60
2018-08-03T15:46:54.470Z,0.60
2018-08-03T15:50:02.663Z,0.80
2018-08-03T15:53:12.262Z,0.80
2018-08-03T15:56:21.212Z,0.77
2018-08-03T15:59:30.360Z,0.70
2018-08-03T16:02:39.004Z,0.60
2018-08-03T16:05:48.888Z,0.60
2018-08-03T16:08:57.676Z,0.60
2018-08-03T16:11:58.077Z,0.63
2018-08-03T16:15:08.031Z,0.70
2018-08-03T16:18:19.975Z,0.50
2018-08-03T16:21:29.906Z,0.60
2018-08-03T16:24:38.608Z,0.77
2018-08-03T16:27:48.395Z,0.50
2018-08-03T16:30:58.058Z,0.67
2018-08-03T16:34:07.954Z,0.70
2018-08-03T16:37:16.796Z,0.70
2018-08-03T16:40:26.010Z,0.50
2018-08-03T16:43:33.546Z,0.60
2018-08-03T16:46:42.736Z,0.50
2018-08-03T16:49:53.933Z,0.70
2018-08-03T16:53:02.895Z,0.50
2018-08-03T16:56:13.400Z,0.70
2018-08-03T16:59:22.147Z,0.43
2018-08-03T17:02:32.974Z,0.60
2018-08-03T17:05:42.063Z,0.40
2018-08-03T17:08:51.498Z,0.63
2018-08-03T17:12:00.344Z,0.60
2018-08-03T17:15:08.876Z,0.70
2018-08-03T17:18:18.546Z,0.70
2018-08-03T17:21:26.668Z,0.80
2018-08-03T17:24:36.800Z,0.60
2018-08-03T17:27:36.617Z,0.80
2018-08-03T17:30:45.144Z,0.70
2018-08-03T17:33:55.656Z,0.77
2018-08-03T17:37:03.988Z,0.90
2018-08-03T17:40:12.569Z,0.60
2018-08-03T17:43:22.072Z,0.80
2018-08-03T17:46:32.182Z,0.77
2018-08-03T17:49:41.960Z,0.70
2018-08-03T17:52:52.592Z,0.90
2018-08-03T17:56:01.853Z,0.67
2018-08-03T17:59:11.342Z,0.70
2018-08-03T18:02:21.200Z,1.00
2018-08-03T18:05:30.256Z,0.63
2018-08-03T18:08:38.996Z,0.83
2018-08-03T18:11:47.423Z,0.70
2018-08-03T18:14:57.566Z,1.00
2018-08-03T18:17:58.105Z,0.80
2018-08-03T18:20:57.966Z,0.80
2018-08-03T18:24:07.755Z,1.00
2018-08-03T18:27:17.675Z,0.90
2018-08-03T18:30:27.226Z,0.90
2018-08-03T18:33:37.550Z,0.80
2018-08-03T18:36:47.000Z,1.10
2018-08-03T18:39:46.548Z,0.73
2018-08-03T18:42:55.298Z,0.70
2018-08-03T18:46:04.017Z,0.87
2018-08-03T18:49:12.846Z,0.50
2018-08-03T18:52:22.189Z,0.63
2018-08-03T18:55:31.896Z,0.70
2018-08-03T18:58:39.912Z,0.80
2018-08-03T19:01:47.919Z,0.87
2018-08-03T19:04:57.181Z,1.00
2018-08-03T19:08:05.609Z,0.70
2018-08-03T19:11:15.478Z,0.80
2018-08-03T19:14:25.374Z,0.80
2018-08-03T19:17:34.871Z,1.00
2018-08-03T19:20:44.112Z,0.83
2018-08-03T19:23:53.582Z,1.10
2018-08-03T19:27:02.426Z,0.63
2018-08-03T19:30:10.272Z,1.00
2018-08-03T19:33:19.064Z,1.10
2018-08-03T19:36:28.327Z,1.17
2018-08-03T19:39:35.712Z,0.67
2018-08-03T19:42:43.102Z,1.03
2018-08-03T19:45:51.944Z,1.00
2018-08-03T19:49:00.804Z,1.10
2018-08-03T19:52:11.185Z,1.17
2018-08-03T19:55:21.071Z,1.00
2018-08-03T19:58:30.171Z,1.00
2018-08-03T20:01:38.654Z,1.00
2018-08-03T20:04:46.809Z,0.93
2018-08-03T20:07:54.900Z,0.90
2018-08-03T20:11:04.566Z,1.00
2018-08-03T20:14:15.142Z,0.80
2018-08-03T20:17:23.968Z,0.87
2018-08-03T20:20:32.006Z,1.20
2018-08-03T20:23:42.014Z,1.10
2018-08-03T20:26:51.800Z,1.00
2018-08-03T20:30:00.751Z,0.80
2018-08-03T20:33:09.813Z,1.10
2018-08-03T20:36:19.586Z,0.90
2018-08-03T20:39:29.580Z,0.97
2018-08-03T20:42:38.045Z,1.20
2018-08-03T20:45:47.257Z,0.97
2018-08-03T20:48:55.903Z,0.80
2018-08-03T20:52:06.757Z,0.90
2018-08-03T20:55:15.783Z,1.10
2018-08-03T20:58:26.472Z,1.03
2018-08-03T21:01:35.579Z,1.00
2018-08-03T21:04:45.357Z,1.00
2018-08-03T21:07:54.919Z,1.00
2018-08-03T21:11:05.326Z,1.20
2018-08-03T21:14:13.961Z,1.10
2018-08-03T21:17:22.593Z,0.77
2018-08-03T21:20:32.904Z,1.07
2018-08-03T21:23:41.434Z,1.00
2018-08-03T21:26:50.377Z,0.90
2018-08-03T21:29:59.642Z,0.80
2018-08-03T21:33:08.898Z,1.00
2018-08-03T21:36:18.371Z,1.10
2018-08-03T21:39:27.422Z,0.90
2018-08-03T21:42:36.890Z,0.80
2018-08-03T21:45:45.208Z,0.90
2018-08-03T21:48:56.032Z,1.03
2018-08-03T21:52:06.342Z,0.77
2018-08-03T21:55:15.190Z,1.10
2018-08-03T21:58:24.868Z,1.13
2018-08-03T22:01:36.865Z,1.17
2018-08-03T22:04:45.688Z,1.10
2018-08-03T22:07:53.899Z,1.00
2018-08-03T22:11:03.560Z,1.20
2018-08-03T22:14:13.572Z,1.07
2018-08-03T22:17:22.999Z,1.10
2018-08-03T22:20:34.479Z,1.03
2018-08-03T22:23:42.528Z,0.90
2018-08-03T22:26:52.500Z,1.00
2018-08-03T22:30:02.898Z,1.03
2018-08-03T22:33:11.576Z,0.80
2018-08-03T22:36:18.932Z,0.90
2018-08-03T22:39:27.414Z,0.93
2018-08-03T22:42:37.991Z,1.10
2018-08-03T22:45:46.694Z,0.87
2018-08-03T22:48:54.299Z,1.20
2018-08-03T22:52:03.665Z,0.90
2018-08-03T22:55:14.076Z,0.90
2018-08-03T22:58:24.070Z,0.80
2018-08-03T23:01:33.248Z,0.97
2018-08-03T23:04:42.064Z,1.00
2018-08-03T23:07:51.801Z,0.90
2018-08-03T23:11:00.165Z,0.70
2018-08-03T23:14:10.265Z,1.10
2018-08-03T23:17:18.482Z,0.80
2018-08-03T23:20:28.163Z,0.90
2018-08-03T23:23:36.900Z,1.17
2018-08-03T23:26:46.030Z,1.00
2018-08-03T23:29:55.966Z,0.70
2018-08-03T23:33:06.992Z,0.87
2018-08-03T23:36:16.348Z,0.80
2018-08-03T23:39:24.663Z,1.10
2018-08-03T23:42:35.044Z,1.00
2018-08-03T23:45:44.760Z,0.87
2018-08-03T23:48:53.170Z,1.10
2018-08-03T23:52:01.968Z,0.70
2018-08-03T23:55:10.861Z,0.83
2018-08-03T23:58:19.188Z,1.00
